Time;durP1;ratioP1;P1;durP2;ratioP2;P2;SDS_P1;SDS_P2;PMS_P1;PMS_P2;Temp;Humidity;BMP_temperature;BMP_pressure;BME280_temperature;BME280_humidity;BME280_pressure;Samples;Min_cycle;Max_cycle;Signal;HPM_P1;HPM_P2
2021/08/02 00:00:41;;;;;;;3.60;2.15;;;;;;;;;;5052538;28;20025;-52
2021/08/02 00:03:16;;;;;;;3.67;2.03;;;;;;;;;;5052905;28;20017;-52
2021/08/02 00:05:45;;;;;;;6.75;2.30;;;;;;;;;;5052635;28;20025;-52
2021/08/02 00:08:12;;;;;;;4.20;2.22;;;;;;;;;;5052869;28;20074;-52
2021/08/02 00:10:38;;;;;;;4.13;2.35;;;;;;;;;;5052537;28;20056;-52
2021/08/02 00:13:13;;;;;;;5.38;1.85;;;;;;;;;;5052784;28;20060;-52
2021/08/02 00:15:39;;;;;;;3.53;2.20;;;;;;;;;;5052592;28;20032;-52
2021/08/02 00:18:06;;;;;;;2.53;1.73;;;;;;;;;;5052818;28;20338;-52
2021/08/02 00:20:34;;;;;;;2.63;2.15;;;;;;;;;;5052405;28;20119;-52
2021/08/02 00:23:01;;;;;;;2.03;1.75;;;;;;;;;;5052363;28;20028;-52
2021/08/02 00:25:28;;;;;;;7.43;2.17;;;;;;;;;;5053052;28;20036;-52
2021/08/02 00:27:55;;;;;;;2.88;2.28;;;;;;;;;;5052071;28;20102;-52
2021/08/02 00:30:21;;;;;;;4.65;2.33;;;;;;;;;;5052500;28;20040;-52
2021/08/02 00:32:47;;;;;;;3.47;1.90;;;;;;;;;;5051848;28;20021;-52
2021/08/02 00:35:14;;;;;;;2.35;2.15;;;;;;;;;;5052436;28;20061;-52
2021/08/02 00:37:40;;;;;;;2.70;1.80;;;;;;;;;;5052440;28;20355;-52
2021/08/02 00:40:24;;;;;;;4.35;2.40;;;;;;;;;;5052834;28;20407;-52
2021/08/02 00:42:58;;;;;;;1.58;1.48;;;;;;;;;;5051595;28;20025;-52
2021/08/02 00:45:28;;;;;;;2.85;2.03;;;;;;;;;;5052062;28;20029;-52
2021/08/02 00:48:05;;;;;;;3.40;1.98;;;;;;;;;;5052640;28;20086;-52
2021/08/02 00:50:33;;;;;;;5.60;2.22;;;;;;;;;;5052191;28;20306;-52
2021/08/02 00:53:10;;;;;;;10.23;2.33;;;;;;;;;;5052666;28;20435;-52
2021/08/02 00:55:37;;;;;;;3.50;2.25;;;;;;;;;;5052773;28;20074;-52
2021/08/02 00:58:05;;;;;;;15.27;2.05;;;;;;;;;;5052090;28;20112;-52
2021/08/02 01:00:31;;;;;;;5.03;2.83;;;;;;;;;;5052274;28;20029;-52
2021/08/02 01:02:58;;;;;;;3.20;2.22;;;;;;;;;;5051832;28;20025;-52
2021/08/02 01:05:24;;;;;;;6.85;3.00;;;;;;;;;;5052681;28;20051;-52
2021/08/02 01:07:58;;;;;;;6.25;2.85;;;;;;;;;;5052209;28;20025;-52
2021/08/02 01:10:25;;;;;;;5.03;2.72;;;;;;;;;;5051936;28;20029;-52
2021/08/02 01:12:52;;;;;;;3.20;2.28;;;;;;;;;;5051710;28;20032;-52
2021/08/02 01:15:19;;;;;;;3.78;2.38;;;;;;;;;;5052552;28;20029;-52
2021/08/02 01:17:46;;;;;;;6.50;2.78;;;;;;;;;;5052109;28;20033;-52
2021/08/02 01:20:13;;;;;;;6.03;2.95;;;;;;;;;;5052423;28;20037;-52
2021/08/02 01:22:41;;;;;;;4.95;2.20;;;;;;;;;;5051159;28;20362;-52
2021/08/02 01:25:25;;;;;;;3.60;2.50;;;;;;;;;;5051967;28;20446;-52
2021/08/02 01:28:11;;;;;;;4.78;2.67;;;;;;;;;;5052067;28;20064;-52
2021/08/02 01:30:37;;;;;;;3.92;2.63;;;;;;;;;;5051370;28;20473;-52
2021/08/02 01:33:03;;;;;;;5.28;2.88;;;;;;;;;;5052257;28;20053;-52
2021/08/02 01:35:29;;;;;;;5.38;3.55;;;;;;;;;;5051677;28;20104;-52
2021/08/02 01:37:56;;;;;;;4.47;2.63;;;;;;;;;;5051893;28;20033;-52
2021/08/02 01:40:22;;;;;;;5.28;2.70;;;;;;;;;;5053143;28;20083;-53
2021/08/02 01:42:48;;;;;;;8.70;2.80;;;;;;;;;;5067722;28;20024;-52
2021/08/02 01:45:14;;;;;;;5.90;3.03;;;;;;;;;;5075728;28;20029;-52
2021/08/02 01:47:49;;;;;;;7.03;2.60;;;;;;;;;;5075296;28;20444;-52
2021/08/02 01:50:18;;;;;;;4.63;2.60;;;;;;;;;;5075814;28;20043;-52
2021/08/02 01:52:56;;;;;;;2.42;2.00;;;;;;;;;;5074830;28;20021;-52
2021/08/02 01:55:23;;;;;;;4.97;2.95;;;;;;;;;;5076165;28;20122;-52
2021/08/02 01:57:53;;;;;;;7.35;1.98;;;;;;;;;;5075467;28;20025;-52
2021/08/02 02:00:19;;;;;;;4.13;2.78;;;;;;;;;;5074925;28;20063;-52
2021/08/02 02:03:05;;;;;;;4.28;2.47;;;;;;;;;;5074092;28;20073;-52
2021/08/02 02:05:36;;;;;;;5.65;2.25;;;;;;;;;;5063434;28;20048;-53
2021/08/02 02:08:28;;;;;;;5.70;2.53;;;;;;;;;;5072522;28;20020;-52
2021/08/02 02:10:56;;;;;;;5.05;2.20;;;;;;;;;;5051328;28;20884;-52
2021/08/02 02:13:25;;;;;;;3.17;2.15;;;;;;;;;;5052544;28;20029;-52
2021/08/02 02:15:53;;;;;;;3.22;2.58;;;;;;;;;;5051938;28;20064;-52
2021/08/02 02:18:21;;;;;;;11.52;2.17;;;;;;;;;;5052474;28;20025;-52
2021/08/02 02:20:49;;;;;;;5.35;2.63;;;;;;;;;;5051656;28;20339;-52
2021/08/02 02:23:16;;;;;;;8.85;2.38;;;;;;;;;;5051295;28;20029;-52
2021/08/02 02:25:42;;;;;;;3.17;2.17;;;;;;;;;;5051821;28;20059;-52
2021/08/02 02:28:09;;;;;;;5.22;2.95;;;;;;;;;;5051622;28;20044;-52
2021/08/02 02:30:36;;;;;;;4.18;2.33;;;;;;;;;;5050989;28;20032;-52
2021/08/02 02:33:02;;;;;;;2.20;1.88;;;;;;;;;;5051756;28;20352;-52
2021/08/02 02:35:28;;;;;;;3.28;2.00;;;;;;;;;;5040129;28;20049;-52
2021/08/02 02:37:54;;;;;;;2.53;2.03;;;;;;;;;;5031610;28;20033;-52
2021/08/02 02:40:21;;;;;;;4.53;2.42;;;;;;;;;;5032374;28;20061;-52
2021/08/02 02:42:48;;;;;;;7.72;2.45;;;;;;;;;;5031029;28;20025;-52
2021/08/02 02:45:14;;;;;;;3.70;2.28;;;;;;;;;;5031936;28;20037;-52
2021/08/02 02:47:40;;;;;;;3.03;1.90;;;;;;;;;;5043053;28;20104;-52
2021/08/02 02:50:07;;;;;;;8.10;2.17;;;;;;;;;;5054022;28;20037;-52
2021/08/02 02:52:33;;;;;;;6.18;2.67;;;;;;;;;;5053383;28;20032;-52
2021/08/02 02:55:00;;;;;;;10.85;2.50;;;;;;;;;;5054025;28;20432;-52
2021/08/02 02:57:26;;;;;;;4.72;2.38;;;;;;;;;;5054614;28;20025;-52
2021/08/02 02:59:52;;;;;;;5.45;2.35;;;;;;;;;;5059699;28;20028;-52
2021/08/02 03:02:20;;;;;;;2.97;2.05;;;;;;;;;;5073043;28;20029;-52
2021/08/02 03:04:47;;;;;;;4.68;2.80;;;;;;;;;;5073924;28;20090;-52
2021/08/02 03:07:15;;;;;;;3.53;2.47;;;;;;;;;;5073955;28;20411;-52
2021/08/02 03:09:41;;;;;;;4.95;3.15;;;;;;;;;;5074278;28;20031;-52
2021/08/02 03:12:08;;;;;;;3.33;2.15;;;;;;;;;;5072979;28;20082;-52
2021/08/02 03:14:34;;;;;;;3.60;2.50;;;;;;;;;;5073731;28;20073;-52
2021/08/02 03:17:00;;;;;;;3.75;2.45;;;;;;;;;;5073373;28;20108;-52
2021/08/02 03:19:26;;;;;;;6.20;2.20;;;;;;;;;;5073790;28;20477;-52
2021/08/02 03:21:52;;;;;;;8.77;3.10;;;;;;;;;;5072245;28;20036;-52
2021/08/02 03:24:21;;;;;;;2.78;2.20;;;;;;;;;;5073494;28;20107;-52
2021/08/02 03:26:51;;;;;;;4.57;2.20;;;;;;;;;;5073436;28;20016;-52
2021/08/02 03:29:26;;;;;;;3.60;2.10;;;;;;;;;;5073508;28;20028;-53
2021/08/02 03:32:01;;;;;;;4.20;2.13;;;;;;;;;;5072476;28;20043;-52
2021/08/02 03:34:28;;;;;;;2.97;2.00;;;;;;;;;;5069736;28;20021;-52
2021/08/02 03:36:55;;;;;;;8.95;2.05;;;;;;;;;;5053316;28;20152;-52
2021/08/02 03:39:23;;;;;;;3.85;2.20;;;;;;;;;;5052882;28;20045;-52
2021/08/02 03:41:50;;;;;;;3.40;2.03;;;;;;;;;;5052528;28;20025;-53
2021/08/02 03:44:16;;;;;;;3.15;2.20;;;;;;;;;;5053090;28;20459;-52
2021/08/02 03:46:42;;;;;;;2.80;1.90;;;;;;;;;;5061078;28;20057;-53
2021/08/02 03:49:09;;;;;;;8.27;2.53;;;;;;;;;;5073489;28;20147;-52
2021/08/02 03:51:55;;;;;;;4.50;2.42;;;;;;;;;;5072032;28;20115;-52
2021/08/02 03:54:21;;;;;;;3.03;2.20;;;;;;;;;;5073391;28;20442;-52
2021/08/02 03:56:47;;;;;;;2.63;1.98;;;;;;;;;;5073213;28;20060;-52
2021/08/02 03:59:13;;;;;;;2.40;1.85;;;;;;;;;;5072987;28;20527;-52
2021/08/02 04:01:39;;;;;;;2.58;2.10;;;;;;;;;;5072282;28;20041;-52
2021/08/02 04:04:06;;;;;;;3.05;1.80;;;;;;;;;;5072629;28;20021;-52
2021/08/02 04:06:32;;;;;;;3.03;2.35;;;;;;;;;;5072766;28;20347;-52
2021/08/02 04:08:58;;;;;;;2.30;2.10;;;;;;;;;;5073662;28;20020;-52
2021/08/02 04:11:24;;;;;;;3.70;2.20;;;;;;;;;;5072264;28;20017;-52
2021/08/02 04:13:50;;;;;;;9.68;2.75;;;;;;;;;;5072642;28;20361;-52
2021/08/02 04:16:16;;;;;;;4.18;2.88;;;;;;;;;;5072834;28;20060;-52
2021/08/02 04:18:42;;;;;;;7.40;2.92;;;;;;;;;;5073045;28;20036;-52
2021/08/02 04:21:08;;;;;;;4.28;2.80;;;;;;;;;;5071966;28;20024;-53
2021/08/02 04:23:34;;;;;;;5.70;2.53;;;;;;;;;;5072911;28;20129;-52
2021/08/02 04:26:00;;;;;;;5.13;3.20;;;;;;;;;;5073240;28;20020;-52
2021/08/02 04:28:26;;;;;;;7.28;4.00;;;;;;;;;;5072583;28;20032;-52
2021/08/02 04:30:52;;;;;;;5.35;3.13;;;;;;;;;;5069359;28;20033;-52
2021/08/02 04:33:18;;;;;;;10.68;3.85;;;;;;;;;;5060881;28;20115;-52
2021/08/02 04:35:44;;;;;;;4.88;3.63;;;;;;;;;;5060085;28;20358;-52
2021/08/02 04:38:10;;;;;;;9.38;4.28;;;;;;;;;;5056672;28;20017;-52
2021/08/02 04:40:36;;;;;;;5.88;3.55;;;;;;;;;;5071970;28;20462;-52
2021/08/02 04:43:02;;;;;;;9.82;4.35;;;;;;;;;;5072556;28;20097;-52
2021/08/02 04:45:29;;;;;;;8.55;4.70;;;;;;;;;;5072824;28;20028;-52
2021/08/02 04:47:54;;;;;;;8.88;4.75;;;;;;;;;;5072679;28;20074;-52
2021/08/02 04:50:21;;;;;;;7.70;4.72;;;;;;;;;;5072927;28;20028;-52
2021/08/02 04:52:47;;;;;;;6.20;4.30;;;;;;;;;;5071668;28;20058;-52
2021/08/02 04:55:14;;;;;;;4.68;3.53;;;;;;;;;;5072420;28;20453;-52
2021/08/02 04:57:40;;;;;;;7.13;4.18;;;;;;;;;;5072107;28;20069;-52
2021/08/02 05:00:06;;;;;;;12.30;4.70;;;;;;;;;;5072927;28;20128;-52
2021/08/02 05:02:33;;;;;;;6.68;4.45;;;;;;;;;;5069639;28;20027;-52
2021/08/02 05:04:59;;;;;;;9.15;4.32;;;;;;;;;;5070237;28;20116;-52
2021/08/02 05:07:25;;;;;;;7.70;4.22;;;;;;;;;;5071901;28;20108;-52
2021/08/02 05:09:51;;;;;;;15.07;4.60;;;;;;;;;;5072426;28;20453;-52
2021/08/02 05:12:17;;;;;;;8.48;3.80;;;;;;;;;;5071178;28;20028;-53
2021/08/02 05:14:43;;;;;;;7.45;4.00;;;;;;;;;;5073903;28;20074;-52
2021/08/02 05:17:09;;;;;;;8.13;4.75;;;;;;;;;;5075028;28;20032;-52
2021/08/02 05:19:35;;;;;;;8.27;3.90;;;;;;;;;;5056048;28;20118;-51
2021/08/02 05:22:02;;;;;;;6.70;4.03;;;;;;;;;;5054996;28;20146;-52
2021/08/02 05:24:28;;;;;;;10.10;3.97;;;;;;;;;;5056025;28;20366;-51
2021/08/02 05:26:54;;;;;;;9.85;3.97;;;;;;;;;;5055523;28;20013;-52
2021/08/02 05:29:20;;;;;;;6.72;3.88;;;;;;;;;;5056424;28;20036;-52
2021/08/02 05:31:46;;;;;;;6.07;3.53;;;;;;;;;;5055332;28;20018;-52
2021/08/02 05:34:12;;;;;;;12.93;3.30;;;;;;;;;;5055824;28;20447;-52
2021/08/02 05:36:39;;;;;;;5.80;3.70;;;;;;;;;;5056012;28;20037;-52
2021/08/02 05:39:05;;;;;;;7.97;4.50;;;;;;;;;;5054892;28;20041;-52
2021/08/02 05:41:31;;;;;;;11.05;3.78;;;;;;;;;;5054143;28;20494;-51
2021/08/02 05:43:57;;;;;;;7.07;4.22;;;;;;;;;;5054632;28;20032;-52
2021/08/02 05:46:23;;;;;;;10.38;3.95;;;;;;;;;;5056104;28;20032;-52
2021/08/02 05:48:49;;;;;;;5.85;3.65;;;;;;;;;;5055578;28;20081;-52
2021/08/02 05:51:15;;;;;;;9.48;4.50;;;;;;;;;;5055355;28;20064;-51
2021/08/02 05:53:41;;;;;;;9.48;4.82;;;;;;;;;;5055307;28;20017;-52
2021/08/02 05:56:07;;;;;;;6.57;4.30;;;;;;;;;;5055600;28;20439;-51
2021/08/02 05:58:33;;;;;;;8.23;4.32;;;;;;;;;;5055469;28;20451;-52
2021/08/02 06:00:59;;;;;;;9.60;4.10;;;;;;;;;;5054538;28;20037;-52
2021/08/02 06:03:25;;;;;;;6.22;3.95;;;;;;;;;;5055061;28;20036;-52
2021/08/02 06:05:51;;;;;;;7.60;4.35;;;;;;;;;;5055097;28;20027;-52
2021/08/02 06:08:17;;;;;;;10.60;5.50;;;;;;;;;;5055436;28;20032;-52
2021/08/02 06:10:43;;;;;;;12.98;5.15;;;;;;;;;;5054557;28;20029;-52
2021/08/02 06:13:09;;;;;;;6.72;4.75;;;;;;;;;;5055150;28;20124;-52
2021/08/02 06:15:35;;;;;;;6.05;3.90;;;;;;;;;;5055309;28;20029;-52
2021/08/02 06:18:02;;;;;;;8.60;4.63;;;;;;;;;;5054904;28;20029;-52
2021/08/02 06:20:28;;;;;;;11.57;4.28;;;;;;;;;;5055571;28;20067;-52
2021/08/02 06:22:53;;;;;;;7.35;4.38;;;;;;;;;;5053850;28;20076;-52
2021/08/02 06:25:20;;;;;;;8.38;4.80;;;;;;;;;;5054814;28;20437;-52
2021/08/02 06:27:46;;;;;;;9.32;4.80;;;;;;;;;;5054477;28;20044;-52
2021/08/02 06:30:12;;;;;;;11.43;4.95;;;;;;;;;;5055087;28;20025;-51
2021/08/02 06:32:38;;;;;;;9.65;4.68;;;;;;;;;;5054199;28;20033;-52
2021/08/02 06:35:04;;;;;;;10.20;5.30;;;;;;;;;;5054490;28;20028;-52
2021/08/02 06:37:30;;;;;;;11.95;5.47;;;;;;;;;;5054499;28;20021;-52
2021/08/02 06:39:56;;;;;;;9.75;4.72;;;;;;;;;;5054283;28;20370;-52
2021/08/02 06:42:22;;;;;;;10.48;4.75;;;;;;;;;;5053740;28;20024;-52
2021/08/02 06:44:48;;;;;;;10.98;4.60;;;;;;;;;;5054912;28;20461;-52
2021/08/02 06:47:14;;;;;;;12.80;5.70;;;;;;;;;;5054897;28;20017;-52
2021/08/02 06:49:40;;;;;;;9.43;5.25;;;;;;;;;;5054370;28;20025;-52
2021/08/02 06:52:06;;;;;;;8.77;4.55;;;;;;;;;;5053427;28;20041;-52
2021/08/02 06:54:32;;;;;;;8.77;4.47;;;;;;;;;;5054447;28;20035;-52
2021/08/02 06:56:58;;;;;;;9.40;4.70;;;;;;;;;;5054544;28;20103;-52
2021/08/02 06:59:24;;;;;;;9.93;4.70;;;;;;;;;;5054430;28;20125;-52
2021/08/02 07:01:50;;;;;;;8.35;4.68;;;;;;;;;;5053630;28;20453;-52
2021/08/02 07:04:16;;;;;;;8.60;4.00;;;;;;;;;;5053886;28;20115;-52
2021/08/02 07:06:44;;;;;;;8.43;4.93;;;;;;;;;;5054319;28;20023;-52
2021/08/02 07:09:10;;;;;;;9.57;5.03;;;;;;;;;;5066893;28;20032;-52
2021/08/02 07:11:36;;;;;;;6.32;4.00;;;;;;;;;;5065244;28;20335;-51
2021/08/02 07:14:02;;;;;;;7.13;4.65;;;;;;;;;;5073943;28;20029;-52
2021/08/02 07:16:28;;;;;;;8.10;4.05;;;;;;;;;;5073764;28;20074;-52
2021/08/02 07:18:54;;;;;;;6.70;3.83;;;;;;;;;;5074029;28;20036;-52
2021/08/02 07:21:20;;;;;;;5.88;4.05;;;;;;;;;;5072893;28;20108;-52
2021/08/02 07:23:47;;;;;;;7.72;4.32;;;;;;;;;;5073752;28;20438;-52
2021/08/02 07:26:14;;;;;;;7.93;3.85;;;;;;;;;;5073408;28;20024;-52
2021/08/02 07:28:40;;;;;;;9.00;3.88;;;;;;;;;;5073753;28;20024;-52
2021/08/02 07:31:06;;;;;;;7.38;3.35;;;;;;;;;;5073079;28;20031;-52
2021/08/02 07:33:32;;;;;;;6.97;3.67;;;;;;;;;;5073409;28;20026;-52
2021/08/02 07:35:59;;;;;;;7.28;3.15;;;;;;;;;;5057938;28;20017;-52
2021/08/02 07:38:25;;;;;;;4.32;3.55;;;;;;;;;;5052286;28;20496;-52
2021/08/02 07:40:51;;;;;;;11.98;3.95;;;;;;;;;;5052806;28;20037;-52
2021/08/02 07:43:17;;;;;;;5.65;3.80;;;;;;;;;;5053517;28;20032;-52
2021/08/02 07:45:43;;;;;;;7.47;3.63;;;;;;;;;;5053952;28;20103;-52
2021/08/02 07:48:09;;;;;;;6.43;3.40;;;;;;;;;;5053195;28;20048;-52
2021/08/02 07:50:36;;;;;;;11.40;3.65;;;;;;;;;;5052750;28;20477;-52
2021/08/02 07:53:02;;;;;;;5.18;2.92;;;;;;;;;;5053727;28;20021;-52
2021/08/02 07:55:28;;;;;;;6.10;3.78;;;;;;;;;;5053436;28;20071;-52
2021/08/02 07:57:54;;;;;;;6.63;3.30;;;;;;;;;;5053030;28;20028;-52
2021/08/02 08:00:20;;;;;;;4.30;3.38;;;;;;;;;;5053315;28;20332;-52
2021/08/02 08:02:47;;;;;;;6.97;2.92;;;;;;;;;;5052899;28;20104;-52
2021/08/02 08:05:14;;;;;;;9.05;3.47;;;;;;;;;;5052651;28;20112;-52
2021/08/02 08:07:46;;;;;;;6.55;3.13;;;;;;;;;;5052186;28;20045;-52
2021/08/02 08:10:13;;;;;;;9.70;3.75;;;;;;;;;;5052917;28;20029;-52
2021/08/02 08:12:39;;;;;;;7.18;3.60;;;;;;;;;;5052773;28;20597;-52
2021/08/02 08:15:06;;;;;;;8.50;3.35;;;;;;;;;;5053357;28;20028;-52
2021/08/02 08:17:32;;;;;;;6.07;3.20;;;;;;;;;;5053021;28;20028;-52
2021/08/02 08:19:58;;;;;;;6.78;3.55;;;;;;;;;;5052750;28;20390;-52
2021/08/02 08:22:26;;;;;;;5.55;2.78;;;;;;;;;;5051583;28;20041;-52
2021/08/02 08:24:52;;;;;;;6.18;3.38;;;;;;;;;;5053028;28;20078;-52
2021/08/02 08:27:18;;;;;;;7.80;3.17;;;;;;;;;;5052617;28;20025;-52
2021/08/02 08:29:44;;;;;;;3.42;2.53;;;;;;;;;;5053251;28;20031;-52
2021/08/02 08:32:10;;;;;;;6.88;3.75;;;;;;;;;;5052190;28;20065;-51
2021/08/02 08:34:36;;;;;;;4.65;2.67;;;;;;;;;;5052274;28;20025;-52
2021/08/02 08:37:03;;;;;;;9.40;3.35;;;;;;;;;;5051888;28;20029;-52
2021/08/02 08:39:29;;;;;;;6.72;3.92;;;;;;;;;;5052826;28;20036;-52
2021/08/02 08:41:55;;;;;;;9.07;3.28;;;;;;;;;;5051956;28;20031;-52
2021/08/02 08:44:26;;;;;;;5.40;3.42;;;;;;;;;;5052906;28;20409;-52
2021/08/02 08:46:52;;;;;;;11.35;3.50;;;;;;;;;;5052690;28;20021;-52
2021/08/02 08:49:18;;;;;;;9.45;4.53;;;;;;;;;;5053196;28;20099;-52
2021/08/02 08:51:44;;;;;;;11.13;3.88;;;;;;;;;;5056053;28;20029;-52
2021/08/02 08:54:10;;;;;;;8.93;5.10;;;;;;;;;;5057035;28;20071;-52
2021/08/02 08:56:36;;;;;;;8.43;4.65;;;;;;;;;;5056686;28;20028;-52
2021/08/02 08:59:03;;;;;;;10.52;4.38;;;;;;;;;;5056600;28;20036;-52
2021/08/02 09:01:30;;;;;;;8.05;4.03;;;;;;;;;;5056062;28;20403;-52
2021/08/02 09:03:57;;;;;;;6.07;3.70;;;;;;;;;;5055851;28;20155;-52
2021/08/02 09:06:23;;;;;;;9.90;4.30;;;;;;;;;;5056496;28;20033;-52
2021/08/02 09:08:49;;;;;;;9.98;3.95;;;;;;;;;;5056492;28;20067;-52
2021/08/02 09:11:25;;;;;;;8.18;4.50;;;;;;;;;;5055609;28;20070;-52
2021/08/02 09:13:52;;;;;;;6.47;4.63;;;;;;;;;;5056072;28;20032;-52
2021/08/02 09:16:22;;;;;;;8.80;4.50;;;;;;;;;;5056394;28;20119;-52
2021/08/02 09:18:48;;;;;;;;;;;;;;;;;;5056518;28;20041;-52
2021/08/02 09:21:14;;;;;;;6.65;4.28;;;;;;;;;;5055151;28;20034;-52
2021/08/02 09:23:50;;;;;;;6.45;4.00;;;;;;;;;;5056589;28;20028;-52
2021/08/02 09:26:16;;;;;;;7.32;4.57;;;;;;;;;;5055819;28;20343;-52
2021/08/02 09:29:00;;;;;;;8.68;4.30;;;;;;;;;;5055891;28;20025;-51
2021/08/02 09:31:32;;;;;;;5.90;3.92;;;;;;;;;;5055489;28;20028;-52
2021/08/02 09:34:06;;;;;;;7.25;4.82;;;;;;;;;;5056053;28;20041;-52
2021/08/02 09:36:38;;;;;;;9.55;4.78;;;;;;;;;;5055992;28;20028;-52
2021/08/02 09:39:05;;;;;;;6.97;4.63;;;;;;;;;;5055795;28;20059;-52
2021/08/02 09:41:31;;;;;;;9.70;4.80;;;;;;;;;;5054688;28;20510;-52
2021/08/02 09:43:58;;;;;;;7.70;4.43;;;;;;;;;;5055951;28;20125;-52
2021/08/02 09:46:24;;;;;;;6.88;4.22;;;;;;;;;;5055742;28;20446;-52
2021/08/02 09:48:50;;;;;;;9.40;4.22;;;;;;;;;;5055821;28;20028;-52
2021/08/02 09:51:17;;;;;;;7.35;4.10;;;;;;;;;;5054763;28;20104;-52
2021/08/02 09:53:45;;;;;;;4.22;2.85;;;;;;;;;;5055650;28;20362;-52
2021/08/02 09:56:37;;;;;;;7.40;3.75;;;;;;;;;;5054879;28;20033;-52
2021/08/02 09:59:05;;;;;;;9.13;3.60;;;;;;;;;;5055075;28;20036;-52
2021/08/02 10:01:32;;;;;;;4.43;2.75;;;;;;;;;;5053794;28;20036;-52
2021/08/02 10:03:59;;;;;;;4.07;2.65;;;;;;;;;;5055204;28;20029;-52
2021/08/02 10:06:25;;;;;;;6.35;3.45;;;;;;;;;;5055054;28;20075;-52
2021/08/02 10:08:51;;;;;;;10.27;2.63;;;;;;;;;;5055118;28;20441;-52
2021/08/02 10:11:17;;;;;;;4.80;2.72;;;;;;;;;;5054546;28;20600;-52
2021/08/02 10:13:44;;;;;;;2.22;1.60;;;;;;;;;;5055349;28;20032;-52
2021/08/02 10:16:14;;;;;;;5.93;3.00;;;;;;;;;;5055427;28;20017;-52
2021/08/02 10:18:40;;;;;;;1.77;1.55;;;;;;;;;;5054928;28;20033;-52
2021/08/02 10:21:06;;;;;;;6.70;2.25;;;;;;;;;;5053856;28;20048;-52
2021/08/02 10:23:33;;;;;;;6.60;2.15;;;;;;;;;;5055457;28;20086;-52
2021/08/02 10:25:59;;;;;;;2.67;2.00;;;;;;;;;;5054916;28;20439;-52
2021/08/02 10:28:25;;;;;;;4.68;1.95;;;;;;;;;;5054490;28;20108;-52
2021/08/02 10:31:01;;;;;;;3.22;2.05;;;;;;;;;;5054236;28;20064;-52
2021/08/02 10:33:34;;;;;;;2.72;1.52;;;;;;;;;;5055125;28;20025;-52
2021/08/02 10:36:10;;;;;;;2.25;1.65;;;;;;;;;;5070720;28;20028;-52
2021/08/02 10:38:39;;;;;;;1.70;1.50;;;;;;;;;;5074939;28;20055;-52
2021/08/02 10:41:05;;;;;;;9.70;1.88;;;;;;;;;;5074340;28;20025;-52
2021/08/02 10:43:38;;;;;;;2.50;1.45;;;;;;;;;;5074423;28;20031;-52
2021/08/02 10:46:18;;;;;;;2.17;1.33;;;;;;;;;;5074229;28;20082;-52
2021/08/02 10:48:45;;;;;;;3.85;1.50;;;;;;;;;;5074662;28;20048;-52
2021/08/02 10:51:12;;;;;;;3.90;1.35;;;;;;;;;;5073486;28;20029;-52
2021/08/02 10:53:38;;;;;;;3.10;1.48;;;;;;;;;;5075031;28;20028;-52
2021/08/02 10:56:05;;;;;;;1.67;1.52;;;;;;;;;;5074466;28;20020;-52
2021/08/02 10:58:40;;;;;;;3.33;1.58;;;;;;;;;;5074390;28;20056;-52
2021/08/02 11:01:12;;;;;;;3.60;1.70;;;;;;;;;;5073434;28;20369;-52
2021/08/02 11:03:39;;;;;;;2.55;1.40;;;;;;;;;;5074329;28;20017;-52
2021/08/02 11:06:25;;;;;;;4.00;1.50;;;;;;;;;;5073999;28;20028;-52
2021/08/02 11:08:52;;;;;;;2.78;1.63;;;;;;;;;;5074230;28;20032;-52
2021/08/02 11:11:38;;;;;;;6.28;1.88;;;;;;;;;;5073152;28;20027;-52
2021/08/02 11:14:08;;;;;;;3.67;1.77;;;;;;;;;;5073827;28;20434;-52
2021/08/02 11:16:41;;;;;;;2.08;1.80;;;;;;;;;;5074011;28;20025;-52
2021/08/02 11:19:14;;;;;;;3.45;1.60;;;;;;;;;;5074469;28;20032;-52
2021/08/02 11:21:40;;;;;;;1.80;1.52;;;;;;;;;;5073042;28;20532;-52
2021/08/02 11:24:09;;;;;;;3.42;1.27;;;;;;;;;;5073905;28;20461;-52
2021/08/02 11:26:55;;;;;;;3.85;1.30;;;;;;;;;;5073858;28;20020;-52
2021/08/02 11:29:23;;;;;;;5.90;2.40;;;;;;;;;;5073802;28;20032;-52
2021/08/02 11:32:12;;;;;;;6.93;1.55;;;;;;;;;;5072284;28;20103;-52
2021/08/02 11:34:43;;;;;;;1.45;1.33;;;;;;;;;;5070514;28;20094;-52
2021/08/02 11:37:10;;;;;;;2.30;1.45;;;;;;;;;;5073929;28;20025;-52
2021/08/02 11:39:38;;;;;;;4.32;1.42;;;;;;;;;;5073664;28;20162;-52
2021/08/02 11:42:04;;;;;;;4.70;1.83;;;;;;;;;;5072377;28;20027;-52
2021/08/02 11:44:31;;;;;;;2.17;1.48;;;;;;;;;;5073390;28;20024;-52
2021/08/02 11:46:57;;;;;;;4.00;2.25;;;;;;;;;;5073226;28;20025;-52
2021/08/02 11:49:24;;;;;;;4.20;1.50;;;;;;;;;;5073660;28;20024;-52
2021/08/02 11:51:50;;;;;;;1.88;1.55;;;;;;;;;;5072420;28;20106;-52
2021/08/02 11:54:23;;;;;;;2.60;1.77;;;;;;;;;;5073385;28;20476;-52
2021/08/02 11:56:49;;;;;;;4.60;1.92;;;;;;;;;;5073124;28;20048;-52
2021/08/02 11:59:19;;;;;;;3.13;2.30;;;;;;;;;;5073279;28;20458;-52
2021/08/02 12:01:49;;;;;;;4.07;2.35;;;;;;;;;;5072103;28;20025;-52
2021/08/02 12:04:16;;;;;;;3.47;1.90;;;;;;;;;;5073221;28;20236;-52
2021/08/02 12:06:52;;;;;;;3.22;2.15;;;;;;;;;;5072936;28;20304;-52
2021/08/02 12:09:35;;;;;;;5.93;2.50;;;;;;;;;;5073141;28;20103;-52
2021/08/02 12:12:02;;;;;;;3.33;2.08;;;;;;;;;;5072090;28;20111;-52
2021/08/02 12:14:30;;;;;;;4.22;2.03;;;;;;;;;;5073087;28;20029;-52
2021/08/02 12:17:01;;;;;;;3.53;2.20;;;;;;;;;;5072947;28;20032;-52
2021/08/02 12:19:28;;;;;;;4.00;2.35;;;;;;;;;;5073101;28;20036;-52
2021/08/02 12:21:54;;;;;;;2.90;1.80;;;;;;;;;;5071531;28;20472;-52
2021/08/02 12:24:20;;;;;;;5.15;1.98;;;;;;;;;;5072834;28;20031;-52
2021/08/02 12:26:50;;;;;;;4.70;2.20;;;;;;;;;;5072692;28;20020;-53
2021/08/02 12:29:23;;;;;;;3.33;2.20;;;;;;;;;;5073201;28;20074;-52
2021/08/02 12:31:57;;;;;;;3.85;2.00;;;;;;;;;;5072204;28;20029;-52
2021/08/02 12:34:24;;;;;;;3.53;2.08;;;;;;;;;;5072527;28;20027;-52
2021/08/02 12:36:52;;;;;;;4.63;2.05;;;;;;;;;;5072793;28;20021;-53
2021/08/02 12:39:18;;;;;;;3.63;2.25;;;;;;;;;;5072902;28;20082;-52
2021/08/02 12:41:44;;;;;;;3.22;1.98;;;;;;;;;;5071839;28;20029;-52
2021/08/02 12:44:10;;;;;;;3.75;2.08;;;;;;;;;;5073104;28;20111;-52
2021/08/02 12:46:36;;;;;;;4.47;1.40;;;;;;;;;;5072684;28;20095;-52
2021/08/02 12:49:02;;;;;;;1.35;1.00;;;;;;;;;;5072474;28;20025;-52
2021/08/02 12:51:28;;;;;;;2.35;1.42;;;;;;;;;;5071256;28;20024;-52
2021/08/02 12:53:54;;;;;;;1.75;1.42;;;;;;;;;;5072859;28;20353;-52
2021/08/02 12:56:20;;;;;;;1.85;1.45;;;;;;;;;;5072746;28;20456;-52
2021/08/02 12:58:46;;;;;;;4.22;1.50;;;;;;;;;;5072438;28;20032;-52
2021/08/02 13:01:14;;;;;;;3.65;1.77;;;;;;;;;;5072055;28;20032;-52
2021/08/02 13:03:43;;;;;;;1.52;1.20;;;;;;;;;;5072236;28;20071;-52
2021/08/02 13:06:09;;;;;;;2.97;1.65;;;;;;;;;;5072380;28;20354;-52
2021/08/02 13:08:35;;;;;;;1.55;1.15;;;;;;;;;;5072710;28;20020;-52
2021/08/02 13:11:04;;;;;;;0.90;0.90;;;;;;;;;;5071517;28;20434;-52
2021/08/02 13:13:30;;;;;;;4.70;1.10;;;;;;;;;;5072647;28;20462;-52
2021/08/02 13:15:57;;;;;;;1.23;1.13;;;;;;;;;;5072452;28;20032;-52
2021/08/02 13:18:23;;;;;;;3.40;1.10;;;;;;;;;;5071951;28;20082;-52
2021/08/02 13:20:49;;;;;;;0.90;0.80;;;;;;;;;;5071677;28;20024;-52
2021/08/02 13:28:35;;;;;;;1.38;0.80;;;;;;;;;;5072195;28;20400;-52
2021/08/02 13:31:01;;;;;;;1.20;1.00;;;;;;;;;;5072116;28;20021;-52
2021/08/02 13:33:27;;;;;;;1.70;1.00;;;;;;;;;;5072106;28;20361;-52
2021/08/02 13:35:53;;;;;;;1.00;1.00;;;;;;;;;;5072198;28;20020;-52
2021/08/02 13:38:19;;;;;;;4.63;0.95;;;;;;;;;;5075825;28;20056;-52
2021/08/02 13:40:45;;;;;;;1.23;0.80;;;;;;;;;;5075172;28;20063;-52
2021/08/02 13:43:11;;;;;;;2.67;0.80;;;;;;;;;;5075753;28;20025;-52
2021/08/02 13:45:38;;;;;;;1.15;1.02;;;;;;;;;;5075728;28;20029;-52
2021/08/02 13:48:04;;;;;;;1.67;0.95;;;;;;;;;;5075638;28;20465;-52
2021/08/02 13:50:30;;;;;;;1.23;0.77;;;;;;;;;;5075235;28;20025;-52
2021/08/02 13:52:56;;;;;;;1.42;0.93;;;;;;;;;;5075167;28;20461;-52
2021/08/02 13:55:22;;;;;;;0.60;0.60;;;;;;;;;;5076059;28;20021;-52
2021/08/02 13:57:48;;;;;;;1.23;1.00;;;;;;;;;;5075082;28;20028;-52
2021/08/02 14:00:15;;;;;;;1.58;1.00;;;;;;;;;;5075235;28;20523;-52
2021/08/02 14:02:41;;;;;;;1.73;0.95;;;;;;;;;;5074791;28;20113;-52
2021/08/02 14:05:08;;;;;;;1.08;0.98;;;;;;;;;;5075540;28;20048;-52
2021/08/02 14:07:34;;;;;;;1.23;0.85;;;;;;;;;;5075009;28;20021;-52
2021/08/02 14:10:01;;;;;;;0.85;0.80;;;;;;;;;;5073963;28;20327;-52
2021/08/02 14:12:33;;;;;;;0.70;0.70;;;;;;;;;;5074309;28;20062;-52
2021/08/02 14:15:02;;;;;;;2.38;1.08;;;;;;;;;;5075307;28;20028;-52
2021/08/02 14:17:30;;;;;;;0.90;0.90;;;;;;;;;;5074736;28;20017;-52
2021/08/02 14:19:57;;;;;;;2.13;1.10;;;;;;;;;;5075194;28;20032;-52
2021/08/02 14:22:23;;;;;;;0.98;0.95;;;;;;;;;;5074361;28;20036;-52
2021/08/02 14:24:50;;;;;;;1.00;0.90;;;;;;;;;;5074768;28;20078;-52
2021/08/02 14:27:16;;;;;;;1.27;1.17;;;;;;;;;;5075182;28;20032;-52
2021/08/02 14:29:42;;;;;;;2.58;1.27;;;;;;;;;;5074875;28;20362;-52
2021/08/02 14:32:09;;;;;;;1.88;1.20;;;;;;;;;;5074595;28;20025;-52
2021/08/02 14:34:35;;;;;;;0.93;0.93;;;;;;;;;;5074584;28;20355;-52
2021/08/02 14:37:03;;;;;;;0.93;0.90;;;;;;;;;;5075206;28;20025;-52
2021/08/02 14:39:30;;;;;;;0.82;0.82;;;;;;;;;;5074670;28;20032;-52
2021/08/02 14:42:01;;;;;;;1.75;0.90;;;;;;;;;;5074197;28;20460;-52
2021/08/02 14:44:28;;;;;;;1.00;0.90;;;;;;;;;;5075009;28;20035;-52
2021/08/02 14:46:55;;;;;;;1.30;0.90;;;;;;;;;;5073987;28;20320;-52
2021/08/02 14:49:21;;;;;;;2.28;1.00;;;;;;;;;;5074543;28;20059;-52
2021/08/02 14:51:48;;;;;;;0.90;0.57;;;;;;;;;;5073607;28;20112;-52